Hauptseite
METAR-TAF:

METAR-TAF

Flughäfen :

Sion, Schweiz

Flughafen Sitten

Breite: 46-13N, Länge: 007-20E, Höhe: 482 m

Beobachtung

Neuester Wetterbericht von vor 12 Minuten, um 21:50 UTC
Wind 1 kt aus unterschiedlichen Richtungen
Temperatur 0°C
Luftfeuchtigkeit 80%
Luftdruck 1012 hPa
Sichtweite: 4800 m
feuchter Dunst

METAR: LSGS 242150Z AUTO VRB01KT 4800 BR NCD 00/M03 Q1012

Zeit: 23:02 (22:02 UTC)

Prognose

Neuester Wetterbericht von vor 7 Stunden und 37 Minuten, um 14:25 UTC
Gültige Prognose vom 24 um 15 UTC bis 24 um 24 UTC
Wind 10 kt aus West/Südwest
Sichtweite: 9000 m
Leicht bewölkt in der Höhe von 8000 ft
Übergehend zu
vom 24 um 17 UTC bis 24 um 19 UTC
Wind 3 kt aus unterschiedlichen Richtungen

TAF: LSGS 241425Z 2415/2424 25010KT 9000 FEW080 BECMG 2417/2419 VRB03KT

Wetterbeobachtungen und Prognosen von mehr als 4000 Flughäfen (METAR und TAF Bericht).

Die verfügbaren Stationen werden durch gelbe und rote Markierungen auf der Karte dargestellt.

Führen Sie die Maus auf sie, um den Namen der Station zu sehen.

Darauf klicken, um die Beobachtung von Wetterbeobachtungen und Prognosen zu sehen.

Um die Karte zu ändern : klicken Sie auf den grünen Tasten mit einem schwarzen Kreuz Zum Vergrößern, auf den grünen Button mit einem Gedankenstrich zu verkleinern, oder auf die grünen Pfeile für benachbarte Karten.


METAR-TAF: